createdAt,value
2023-02-19T00:00:01.710Z,98756.20
2023-02-19T00:02:30.422Z,98755.20
2023-02-19T00:04:58.393Z,98749.60
2023-02-19T00:07:26.426Z,98747.20
2023-02-19T00:09:54.930Z,98739.40
2023-02-19T00:12:22.988Z,98742.40
2023-02-19T00:14:50.914Z,98739.60
2023-02-19T00:17:18.756Z,98740.20
2023-02-19T00:19:46.558Z,98742.40
2023-02-19T00:22:14.384Z,98739.60
2023-02-19T00:24:42.462Z,98736.20
2023-02-19T00:27:10.388Z,98741.80
2023-02-19T00:29:38.194Z,98743.40
2023-02-19T00:32:06.485Z,98747.00
2023-02-19T00:34:34.489Z,98752.40
2023-02-19T00:37:02.231Z,98755.00
2023-02-19T00:39:30.434Z,98758.20
2023-02-19T00:42:00.756Z,98754.60
2023-02-19T00:44:28.664Z,98761.20
2023-02-19T00:46:56.488Z,98760.00
2023-02-19T00:49:24.766Z,98758.80
2023-02-19T00:51:53.189Z,98752.40
2023-02-19T00:54:22.777Z,98748.80
2023-02-19T00:56:51.448Z,98754.20
2023-02-19T00:59:19.642Z,98758.40
2023-02-19T01:01:47.644Z,98757.20
2023-02-19T01:04:16.603Z,98752.20
2023-02-19T01:06:44.661Z,98762.00
2023-02-19T01:09:13.713Z,98751.00
2023-02-19T01:11:42.276Z,98758.40
2023-02-19T01:14:10.797Z,98752.80
2023-02-19T01:16:39.072Z,98755.00
2023-02-19T01:19:07.513Z,98757.40
2023-02-19T01:21:35.212Z,98762.40
2023-02-19T01:24:04.927Z,98757.60
2023-02-19T01:26:33.678Z,98759.20
2023-02-19T01:29:03.822Z,98755.60
2023-02-19T01:31:32.827Z,98760.60
2023-02-19T01:34:04.006Z,98756.20
2023-02-19T01:36:33.484Z,98764.20
2023-02-19T01:39:05.009Z,98765.80
2023-02-19T01:41:37.332Z,98766.20
2023-02-19T01:44:11.447Z,98764.00
2023-02-19T01:46:41.471Z,98757.60
2023-02-19T01:49:12.794Z,98750.60
2023-02-19T01:52:09.333Z,98747.20
2023-02-19T01:54:38.198Z,98746.00
2023-02-19T01:57:08.643Z,98746.00
2023-02-19T01:59:36.436Z,98746.20
2023-02-19T02:02:04.734Z,98741.40
2023-02-19T02:04:32.988Z,98735.00
2023-02-19T02:07:02.837Z,98733.60
2023-02-19T02:09:49.985Z,98727.40
2023-02-19T02:12:17.857Z,98727.40
2023-02-19T02:14:46.651Z,98724.60
2023-02-19T02:17:34.200Z,98727.80
2023-02-19T02:20:28.411Z,98724.00
2023-02-19T02:23:07.932Z,98722.80
2023-02-19T02:25:41.437Z,98723.20
2023-02-19T02:28:40.166Z,98715.40
2023-02-19T02:31:42.562Z,98716.60
2023-02-19T02:34:19.424Z,98724.80
2023-02-19T02:36:50.242Z,98722.40
2023-02-19T02:39:21.068Z,98715.80
2023-02-19T02:42:17.156Z,98709.40
2023-02-19T02:45:08.024Z,98712.80
2023-02-19T02:47:41.835Z,98706.40
2023-02-19T02:50:25.275Z,98701.00
2023-02-19T02:53:18.012Z,98695.80
2023-02-19T02:55:48.632Z,98693.60
2023-02-19T02:58:16.594Z,98697.80
2023-02-19T03:01:05.053Z,98698.60
2023-02-19T03:03:33.187Z,98699.80
2023-02-19T03:06:05.206Z,98690.40
2023-02-19T03:08:42.909Z,98694.20
2023-02-19T03:11:30.150Z,98687.60
2023-02-19T03:14:25.535Z,98685.40
2023-02-19T03:17:16.547Z,98676.00
2023-02-19T03:19:49.544Z,98669.20
2023-02-19T03:22:40.554Z,98665.60
2023-02-19T03:25:45.166Z,98665.40
2023-02-19T03:28:17.713Z,98667.00
2023-02-19T03:30:51.898Z,98668.00
2023-02-19T03:33:22.966Z,98667.00
2023-02-19T03:35:57.568Z,98666.00
2023-02-19T03:38:49.622Z,98661.20
2023-02-19T03:41:37.253Z,98662.00
2023-02-19T03:44:18.441Z,98652.80
2023-02-19T03:47:19.169Z,98645.40
2023-02-19T03:50:28.988Z,98649.60
2023-02-19T03:53:14.978Z,98646.40
2023-02-19T03:56:10.258Z,98647.60
2023-02-19T03:59:05.768Z,98649.60
2023-02-19T04:01:42.448Z,98647.20
2023-02-19T04:04:33.016Z,98650.00
2023-02-19T04:07:01.245Z,98647.40
2023-02-19T04:09:38.056Z,98651.80
2023-02-19T04:12:09.555Z,98652.80
2023-02-19T04:14:55.090Z,98656.60
2023-02-19T04:17:31.405Z,98646.60
2023-02-19T04:19:59.540Z,98646.80
2023-02-19T04:22:27.433Z,98643.60
2023-02-19T04:24:55.773Z,98635.60
2023-02-19T04:27:23.740Z,98634.20
2023-02-19T04:29:51.775Z,98636.60
2023-02-19T04:32:19.607Z,98642.00
2023-02-19T04:34:47.459Z,98641.00
2023-02-19T04:37:15.687Z,98645.20
2023-02-19T04:39:44.033Z,98639.60
2023-02-19T04:42:11.944Z,98635.80
2023-02-19T04:44:40.026Z,98630.00
2023-02-19T04:47:08.406Z,98633.00
2023-02-19T04:49:36.373Z,98626.40
2023-02-19T04:52:04.690Z,98626.80
2023-02-19T04:54:32.439Z,98625.00
2023-02-19T04:57:00.282Z,98619.40
2023-02-19T04:59:28.625Z,98614.80
2023-02-19T05:01:58.156Z,98613.40
2023-02-19T05:04:26.356Z,98614.60
2023-02-19T05:06:54.611Z,98609.40
2023-02-19T05:09:22.377Z,98598.60
2023-02-19T05:11:50.440Z,98588.60
2023-02-19T05:14:18.326Z,98587.00
2023-02-19T05:16:46.424Z,98585.00
2023-02-19T05:19:14.305Z,98594.40
2023-02-19T05:21:42.420Z,98586.20
2023-02-19T05:24:10.993Z,98580.20
2023-02-19T05:26:38.822Z,98577.40
2023-02-19T05:29:06.833Z,98582.00
2023-02-19T05:31:34.772Z,98582.40
2023-02-19T05:34:03.689Z,98588.60
2023-02-19T05:36:32.708Z,98591.60
2023-02-19T05:39:00.742Z,98595.00
2023-02-19T05:41:30.283Z,98597.80
2023-02-19T05:43:58.435Z,98589.20
2023-02-19T05:46:29.760Z,98598.40
2023-02-19T05:49:00.756Z,98593.20
2023-02-19T05:51:29.200Z,98602.80
2023-02-19T05:53:57.372Z,98612.40
2023-02-19T05:56:35.058Z,98607.40
2023-02-19T05:59:18.535Z,98610.00
2023-02-19T06:01:47.680Z,98621.40
2023-02-19T06:04:16.066Z,98621.80
2023-02-19T06:06:43.968Z,98629.60
2023-02-19T06:09:12.017Z,98638.00
2023-02-19T06:11:40.217Z,98637.20
2023-02-19T06:14:08.278Z,98631.60
2023-02-19T06:16:36.017Z,98630.80
2023-02-19T06:19:04.364Z,98627.20
2023-02-19T06:21:32.205Z,98631.80
2023-02-19T06:24:07.923Z,98622.00
2023-02-19T06:26:35.860Z,98607.20
2023-02-19T06:29:03.891Z,98617.20
2023-02-19T06:31:32.475Z,98625.00
2023-02-19T06:34:05.020Z,98623.80
2023-02-19T06:36:32.918Z,98634.60
2023-02-19T06:39:01.455Z,98636.60
2023-02-19T06:41:29.512Z,98639.40
2023-02-19T06:43:58.756Z,98647.00
2023-02-19T06:46:26.853Z,98635.40
2023-02-19T06:48:54.625Z,98640.60
2023-02-19T06:51:24.379Z,98634.40
2023-02-19T06:53:52.763Z,98640.00
2023-02-19T06:56:32.623Z,98636.60
2023-02-19T06:59:02.944Z,98637.40
2023-02-19T07:01:32.671Z,98635.40
2023-02-19T07:04:00.766Z,98648.40
2023-02-19T07:06:29.358Z,98645.00
2023-02-19T07:08:58.223Z,98645.20
2023-02-19T07:11:26.756Z,98644.60
2023-02-19T07:14:04.240Z,98646.80
2023-02-19T07:16:32.230Z,98638.00
2023-02-19T07:19:00.735Z,98633.20
2023-02-19T07:21:28.774Z,98637.40
2023-02-19T07:23:57.640Z,98646.80
2023-02-19T07:26:25.841Z,98644.40
2023-02-19T07:28:53.999Z,98651.60
2023-02-19T07:31:23.370Z,98654.80
2023-02-19T07:33:52.231Z,98650.60
2023-02-19T07:36:20.775Z,98659.80
2023-02-19T07:38:57.245Z,98660.00
2023-02-19T07:41:26.008Z,98656.80
2023-02-19T07:43:57.919Z,98664.00
2023-02-19T07:46:25.853Z,98660.20
2023-02-19T07:48:53.980Z,98660.40
2023-02-19T07:51:22.438Z,98656.40
2023-02-19T07:53:51.098Z,98651.80
2023-02-19T07:56:19.786Z,98651.60
2023-02-19T07:58:47.865Z,98649.20
2023-02-19T08:01:39.754Z,98649.80
2023-02-19T08:04:08.235Z,98647.00
2023-02-19T08:06:36.620Z,98649.00
2023-02-19T08:09:05.747Z,98636.60
2023-02-19T08:11:52.352Z,98635.60
2023-02-19T08:14:24.584Z,98626.40
2023-02-19T08:16:53.198Z,98635.80
2023-02-19T08:19:21.485Z,98636.40
2023-02-19T08:21:50.747Z,98639.00
2023-02-19T08:24:18.816Z,98647.80
2023-02-19T08:26:47.632Z,98650.20
2023-02-19T08:29:15.597Z,98644.00
2023-02-19T08:31:44.275Z,98645.60
2023-02-19T08:34:13.061Z,98646.00
2023-02-19T08:36:40.918Z,98649.40
2023-02-19T08:39:09.027Z,98652.20
2023-02-19T08:41:37.397Z,98659.00
2023-02-19T08:44:05.399Z,98647.40
2023-02-19T08:46:34.522Z,98641.20
2023-02-19T08:49:03.010Z,98654.40
2023-02-19T08:51:30.850Z,98657.20
2023-02-19T08:53:58.691Z,98654.40
2023-02-19T08:56:26.519Z,98653.80
2023-02-19T08:58:54.593Z,98661.60
2023-02-19T09:01:23.842Z,98662.40
2023-02-19T09:03:52.904Z,98659.20
2023-02-19T09:06:21.222Z,98657.40
2023-02-19T09:08:49.247Z,98655.20
2023-02-19T09:11:17.298Z,98659.20
2023-02-19T09:13:45.570Z,98652.60
2023-02-19T09:16:13.698Z,98658.40
2023-02-19T09:18:41.583Z,98665.40
2023-02-19T09:21:09.736Z,98671.80
2023-02-19T09:23:38.065Z,98671.60
2023-02-19T09:26:10.265Z,98671.60
2023-02-19T09:28:42.018Z,98671.00
2023-02-19T09:31:15.802Z,98669.60
2023-02-19T09:33:48.387Z,98670.60
2023-02-19T09:36:17.096Z,98664.40
2023-02-19T09:38:45.648Z,98669.20
2023-02-19T09:41:29.710Z,98656.00
2023-02-19T09:44:02.782Z,98659.60
2023-02-19T09:46:43.756Z,98663.80
2023-02-19T09:49:16.012Z,98662.20
2023-02-19T09:51:59.078Z,98668.40
2023-02-19T09:54:29.512Z,98670.00
2023-02-19T09:56:58.662Z,98677.60
2023-02-19T09:59:37.609Z,98677.20
2023-02-19T10:02:23.050Z,98690.20
2023-02-19T10:04:51.298Z,98688.80
2023-02-19T10:07:24.189Z,98690.00
2023-02-19T10:10:02.129Z,98688.00
2023-02-19T10:12:32.269Z,98689.40
2023-02-19T10:15:09.635Z,98693.20
2023-02-19T10:17:37.812Z,98693.40
2023-02-19T10:20:06.410Z,98690.20
2023-02-19T10:22:36.259Z,98695.60
2023-02-19T10:25:04.254Z,98690.00
2023-02-19T10:27:32.416Z,98698.60
2023-02-19T10:30:00.571Z,98700.20
2023-02-19T10:32:29.850Z,98699.00
2023-02-19T10:35:16.421Z,98704.20
2023-02-19T10:37:49.136Z,98704.40
2023-02-19T10:40:22.551Z,98708.80
2023-02-19T10:42:56.642Z,98706.20
2023-02-19T10:45:49.182Z,98712.00
2023-02-19T10:48:25.461Z,98707.20
2023-02-19T10:50:58.181Z,98716.00
2023-02-19T10:53:44.758Z,98718.60
2023-02-19T10:56:23.883Z,98724.60
2023-02-19T10:58:52.324Z,98726.00
2023-02-19T11:01:25.739Z,98730.20
2023-02-19T11:04:17.768Z,98729.60
2023-02-19T11:06:45.816Z,98733.40
2023-02-19T11:09:39.809Z,98726.40
2023-02-19T11:12:09.457Z,98731.60
2023-02-19T11:14:37.662Z,98732.60
2023-02-19T11:17:05.730Z,98737.60
2023-02-19T11:19:38.755Z,98740.40
2023-02-19T11:22:32.457Z,98742.20
2023-02-19T11:25:07.268Z,98748.00
2023-02-19T11:27:35.406Z,98743.60
2023-02-19T11:30:36.550Z,98748.60
2023-02-19T11:33:25.452Z,98752.60
2023-02-19T11:36:50.484Z,98755.00
2023-02-19T11:39:20.576Z,98750.80
2023-02-19T11:42:13.785Z,98750.00
2023-02-19T11:45:09.472Z,98757.40
2023-02-19T11:48:30.259Z,98759.20
2023-02-19T11:51:10.933Z,98764.00
2023-02-19T11:53:49.773Z,98771.60
2023-02-19T11:56:38.007Z,98774.00
2023-02-19T11:59:41.246Z,98776.00
2023-02-19T12:02:32.529Z,98782.20
2023-02-19T12:05:30.058Z,98777.20
2023-02-19T12:08:39.979Z,98784.80
2023-02-19T12:11:35.410Z,98779.80
2023-02-19T12:14:33.040Z,98787.20
2023-02-19T12:17:10.131Z,98784.40
2023-02-19T12:19:56.860Z,98796.20
2023-02-19T12:22:31.129Z,98801.40
2023-02-19T12:25:25.742Z,98805.80
2023-02-19T12:28:39.056Z,98807.20
2023-02-19T12:31:27.977Z,98814.80
2023-02-19T12:34:14.386Z,98813.80
2023-02-19T12:37:22.817Z,98823.80
2023-02-19T12:40:42.190Z,98820.60
2023-02-19T12:43:21.395Z,98826.40
2023-02-19T12:46:17.211Z,98825.40
2023-02-19T12:49:02.687Z,98834.40
2023-02-19T12:51:45.426Z,98837.60
2023-02-19T12:54:19.288Z,98849.40
2023-02-19T12:57:09.174Z,98849.00
2023-02-19T12:59:49.168Z,98853.60
2023-02-19T13:02:23.074Z,98862.80
2023-02-19T13:05:25.840Z,98856.80
2023-02-19T13:08:11.640Z,98858.00
2023-02-19T13:10:45.473Z,98860.60
2023-02-19T13:13:23.923Z,98867.60
2023-02-19T13:16:00.218Z,98871.40
2023-02-19T13:18:40.413Z,98868.20
2023-02-19T13:21:08.715Z,98875.40
2023-02-19T13:23:58.307Z,98868.20
2023-02-19T13:27:07.789Z,98876.20
2023-02-19T13:30:01.742Z,98882.40
2023-02-19T13:33:05.438Z,98877.40
2023-02-19T13:35:39.459Z,98885.20
2023-02-19T13:38:10.025Z,98891.80
2023-02-19T13:40:42.352Z,98894.20
2023-02-19T13:43:34.964Z,98904.80
2023-02-19T13:46:06.744Z,98904.80
2023-02-19T13:48:37.772Z,98912.00
2023-02-19T13:51:26.722Z,98908.80
2023-02-19T13:53:59.186Z,98911.60
2023-02-19T13:56:29.824Z,98913.00
2023-02-19T13:59:23.292Z,98913.00
2023-02-19T14:01:54.254Z,98916.00
2023-02-19T14:04:25.597Z,98916.20
2023-02-19T14:07:02.906Z,98929.40
2023-02-19T14:09:37.326Z,98929.00
2023-02-19T14:12:09.958Z,98933.60
2023-02-19T14:14:50.422Z,98928.20
2023-02-19T14:17:25.637Z,98931.60
2023-02-19T14:20:18.134Z,98927.00
2023-02-19T14:22:46.280Z,98931.20
2023-02-19T14:25:38.414Z,98936.20
2023-02-19T14:28:19.028Z,98953.20
2023-02-19T14:30:49.883Z,98955.00
2023-02-19T14:33:40.358Z,98953.00
2023-02-19T14:36:34.702Z,98955.40
2023-02-19T14:39:12.884Z,98956.00
2023-02-19T14:41:45.096Z,98955.60
2023-02-19T14:44:28.809Z,98962.40
2023-02-19T14:47:16.982Z,98968.40
2023-02-19T14:49:51.666Z,98970.80
2023-02-19T14:52:51.905Z,98975.20
2023-02-19T14:55:29.892Z,98977.60
2023-02-19T14:57:59.306Z,98975.80
2023-02-19T15:00:35.364Z,98986.80
2023-02-19T15:03:03.442Z,98981.40
2023-02-19T15:05:36.841Z,98980.60
2023-02-19T15:08:16.549Z,98988.00
2023-02-19T15:10:44.765Z,98994.20
2023-02-19T15:13:18.791Z,98990.40
2023-02-19T15:15:46.752Z,98992.60
2023-02-19T15:18:36.528Z,98992.80
2023-02-19T15:21:21.675Z,98996.40
2023-02-19T15:23:49.744Z,99001.40
2023-02-19T15:26:23.432Z,99002.80
2023-02-19T15:29:03.838Z,99005.40
2023-02-19T15:31:31.719Z,99008.80
2023-02-19T15:34:00.404Z,99014.40
2023-02-19T15:36:31.343Z,99013.80
2023-02-19T15:39:02.108Z,99017.80
2023-02-19T15:41:33.775Z,99017.40
2023-02-19T15:44:24.713Z,99025.00
2023-02-19T15:46:52.934Z,99028.60
2023-02-19T15:49:54.964Z,99031.20
2023-02-19T15:52:36.450Z,99037.00
2023-02-19T15:55:30.894Z,99041.60
2023-02-19T15:58:36.624Z,99056.20
2023-02-19T16:01:18.264Z,99060.20
2023-02-19T16:03:46.260Z,99062.80
2023-02-19T16:06:16.151Z,99068.20
2023-02-19T16:09:02.267Z,99077.00
2023-02-19T16:11:59.511Z,99078.60
2023-02-19T16:14:35.648Z,99074.40
2023-02-19T16:17:09.864Z,99085.20
2023-02-19T16:20:01.849Z,99093.20
2023-02-19T16:22:32.129Z,99096.80
2023-02-19T16:25:02.545Z,99105.40
2023-02-19T16:27:33.622Z,99108.80
2023-02-19T16:30:17.704Z,99114.40
2023-02-19T16:32:47.034Z,99120.00
2023-02-19T16:35:37.817Z,99123.40
2023-02-19T16:38:13.970Z,99128.40
2023-02-19T16:40:51.121Z,99137.60
2023-02-19T16:43:31.535Z,99129.60
2023-02-19T16:46:00.326Z,99129.00
2023-02-19T16:48:28.295Z,99130.40
2023-02-19T16:50:56.468Z,99137.40
2023-02-19T16:53:25.523Z,99128.60
2023-02-19T16:55:53.652Z,99133.00
2023-02-19T16:58:21.856Z,99143.00
2023-02-19T17:00:49.910Z,99143.40
2023-02-19T17:03:20.669Z,99150.60
2023-02-19T17:05:48.882Z,99149.40
2023-02-19T17:08:37.274Z,99154.40
2023-02-19T17:11:11.310Z,99154.00
2023-02-19T17:13:40.342Z,99164.40
2023-02-19T17:16:10.949Z,99165.00
2023-02-19T17:18:39.185Z,99169.80
2023-02-19T17:21:30.416Z,99171.00
2023-02-19T17:23:58.452Z,99185.60
2023-02-19T17:26:29.123Z,99190.20
2023-02-19T17:29:01.970Z,99191.20
2023-02-19T17:31:30.074Z,99194.60
2023-02-19T17:33:59.119Z,99202.00
2023-02-19T17:36:30.849Z,99201.40
2023-02-19T17:38:59.737Z,99212.40
2023-02-19T17:41:28.510Z,99213.00
2023-02-19T17:43:56.419Z,99211.60
2023-02-19T17:46:26.348Z,99224.60
2023-02-19T17:48:54.800Z,99225.00
2023-02-19T17:51:23.312Z,99230.80
2023-02-19T17:53:51.126Z,99233.60
2023-02-19T17:56:24.323Z,99237.60
2023-02-19T17:58:53.364Z,99253.00
2023-02-19T18:01:22.077Z,99264.60
2023-02-19T18:03:50.995Z,99263.00
2023-02-19T18:06:19.830Z,99276.40
2023-02-19T18:08:52.517Z,99272.80
2023-02-19T18:11:22.432Z,99283.20
2023-02-19T18:13:51.342Z,99276.40
2023-02-19T18:16:19.770Z,99282.00
2023-02-19T18:18:47.915Z,99282.60
2023-02-19T18:21:15.808Z,99284.60
2023-02-19T18:23:44.194Z,99279.40
2023-02-19T18:26:13.853Z,99280.40
2023-02-19T18:28:42.051Z,99276.00
2023-02-19T18:31:10.656Z,99283.80
2023-02-19T18:33:38.968Z,99274.80
2023-02-19T18:36:11.411Z,99276.40
2023-02-19T18:38:39.766Z,99280.20
2023-02-19T18:41:13.278Z,99281.80
2023-02-19T18:43:42.730Z,99281.00
2023-02-19T18:46:11.388Z,99285.40
2023-02-19T18:48:39.614Z,99293.40
2023-02-19T18:51:11.123Z,99294.00
2023-02-19T18:53:39.684Z,99295.80
2023-02-19T18:56:09.388Z,99310.00
2023-02-19T18:58:38.063Z,99313.60
2023-02-19T19:01:05.984Z,99324.80
2023-02-19T19:03:33.987Z,99318.20
2023-02-19T19:06:02.267Z,99324.20
2023-02-19T19:08:30.819Z,99330.00
2023-02-19T19:10:59.227Z,99324.80
2023-02-19T19:13:27.604Z,99332.00
2023-02-19T19:15:55.768Z,99340.80
2023-02-19T19:18:25.310Z,99338.00
2023-02-19T19:20:56.676Z,99340.80
2023-02-19T19:23:24.831Z,99349.60
2023-02-19T19:25:56.177Z,99352.20
2023-02-19T19:28:24.583Z,99358.60
2023-02-19T19:30:52.461Z,99357.00
2023-02-19T19:33:20.707Z,99361.20
2023-02-19T19:35:49.403Z,99366.20
2023-02-19T19:38:17.491Z,99373.00
2023-02-19T19:40:45.394Z,99369.20
2023-02-19T19:43:13.295Z,99375.00
2023-02-19T19:45:41.594Z,99378.40
2023-02-19T19:48:09.815Z,99377.80
2023-02-19T19:50:37.776Z,99374.00
2023-02-19T19:53:05.683Z,99384.20
2023-02-19T19:55:33.717Z,99368.80
2023-02-19T19:58:02.096Z,99375.80
2023-02-19T20:00:30.018Z,99378.60
2023-02-19T20:02:58.189Z,99371.00
2023-02-19T20:05:26.391Z,99380.40
2023-02-19T20:07:54.534Z,99383.40
2023-02-19T20:10:22.571Z,99381.80
2023-02-19T20:12:50.836Z,99379.20
2023-02-19T20:15:22.359Z,99387.20
2023-02-19T20:17:50.670Z,99385.80
2023-02-19T20:20:19.019Z,99383.40
2023-02-19T20:22:46.904Z,99389.00
2023-02-19T20:25:17.944Z,99390.40
2023-02-19T20:27:51.398Z,99396.00
2023-02-19T20:30:23.330Z,99396.40
2023-02-19T20:32:51.807Z,99401.20
2023-02-19T20:35:19.855Z,99399.80
2023-02-19T20:37:49.565Z,99405.80
2023-02-19T20:40:18.684Z,99409.60
2023-02-19T20:42:49.027Z,99411.80
2023-02-19T20:45:17.123Z,99419.80
2023-02-19T20:47:45.035Z,99417.20
2023-02-19T20:50:13.207Z,99422.40
2023-02-19T20:52:43.570Z,99423.60
2023-02-19T20:55:11.610Z,99429.00
2023-02-19T20:57:39.561Z,99430.20
2023-02-19T21:00:09.227Z,99435.20
2023-02-19T21:02:37.390Z,99439.60
2023-02-19T21:05:06.342Z,99438.20
2023-02-19T21:07:34.356Z,99433.40
2023-02-19T21:10:02.359Z,99437.60
2023-02-19T21:12:33.597Z,99441.20
2023-02-19T21:15:01.882Z,99444.40
2023-02-19T21:17:29.984Z,99442.00
2023-02-19T21:19:58.015Z,99452.00
2023-02-19T21:22:25.839Z,99455.20
2023-02-19T21:24:53.755Z,99459.00
2023-02-19T21:27:21.728Z,99459.00
2023-02-19T21:29:50.001Z,99457.00
2023-02-19T21:32:18.039Z,99463.00
2023-02-19T21:34:46.238Z,99469.40
2023-02-19T21:37:14.168Z,99473.60
2023-02-19T21:39:42.878Z,99478.40
2023-02-19T21:42:10.826Z,99476.00
2023-02-19T21:44:38.658Z,99477.40
2023-02-19T21:47:06.684Z,99478.80
2023-02-19T21:49:34.538Z,99478.00
2023-02-19T21:52:02.969Z,99476.00
2023-02-19T21:54:30.907Z,99477.00
2023-02-19T21:57:03.088Z,99481.00
2023-02-19T21:59:31.151Z,99479.80
2023-02-19T22:01:59.143Z,99480.00
2023-02-19T22:04:27.666Z,99478.20
2023-02-19T22:06:57.634Z,99473.60
2023-02-19T22:09:26.115Z,99482.40
2023-02-19T22:11:54.013Z,99488.40
2023-02-19T22:14:21.824Z,99494.40
2023-02-19T22:16:50.223Z,99496.20
2023-02-19T22:19:18.190Z,99494.60
2023-02-19T22:21:46.365Z,99498.00
2023-02-19T22:24:17.785Z,99497.40
2023-02-19T22:26:46.280Z,99485.80
2023-02-19T22:29:15.179Z,99490.00
2023-02-19T22:31:43.913Z,99489.20
2023-02-19T22:34:12.252Z,99496.20
2023-02-19T22:36:40.570Z,99504.60
2023-02-19T22:39:19.329Z,99513.00
2023-02-19T22:41:47.272Z,99503.60
2023-02-19T22:44:15.277Z,99501.20
2023-02-19T22:47:01.505Z,99499.00
2023-02-19T22:49:29.436Z,99497.20
2023-02-19T22:52:02.418Z,99486.60
2023-02-19T22:54:30.370Z,99491.80
2023-02-19T22:56:58.270Z,99504.60
2023-02-19T22:59:28.878Z,99513.20
2023-02-19T23:01:56.808Z,99516.80
2023-02-19T23:04:25.558Z,99521.80
2023-02-19T23:06:53.513Z,99529.20
2023-02-19T23:09:26.675Z,99534.80
2023-02-19T23:12:06.036Z,99531.80
2023-02-19T23:14:34.156Z,99530.60
2023-02-19T23:17:02.267Z,99542.40
2023-02-19T23:19:30.297Z,99538.80
2023-02-19T23:21:58.736Z,99541.00
2023-02-19T23:24:26.669Z,99540.00
2023-02-19T23:26:55.039Z,99539.20
2023-02-19T23:29:25.486Z,99539.20
2023-02-19T23:31:54.419Z,99537.00
2023-02-19T23:34:22.751Z,99534.20
2023-02-19T23:36:50.876Z,99522.60
2023-02-19T23:39:21.251Z,99515.20
2023-02-19T23:41:52.006Z,99516.20
2023-02-19T23:44:20.916Z,99505.80
2023-02-19T23:46:49.241Z,99506.60
2023-02-19T23:49:17.386Z,99509.00
2023-02-19T23:51:45.418Z,99506.40
2023-02-19T23:54:13.470Z,99515.60
2023-02-19T23:56:41.531Z,99509.60
2023-02-19T23:59:09.513Z,99515.60
